Time;durP1;ratioP1;P1;durP2;ratioP2;P2;SDS_P1;SDS_P2;PMS_P1;PMS_P2;Temp;Humidity;BMP_temperature;BMP_pressure;BME280_temperature;BME280_humidity;BME280_pressure;Samples;Min_cycle;Max_cycle;Signal;HPM_P1;HPM_P2
2021/01/18 00:00:57;;;;;;;41.38;19.83;;;;;;;-4.44;90.72;101401.28;4980496;28;20042;-59
2021/01/18 00:03:24;;;;;;;42.90;20.15;;;;;;;-4.55;89.41;101402.75;4986181;28;20069;-59
2021/01/18 00:05:51;;;;;;;42.38;19.67;;;;;;;-5.10;92.06;101389.00;4985304;28;20671;-57
2021/01/18 00:08:17;;;;;;;43.17;20.05;;;;;;;-4.61;91.81;101392.19;4986611;28;20652;-58
2021/01/18 00:10:44;;;;;;;41.78;19.15;;;;;;;-4.89;91.82;101391.13;4985825;28;20050;-58
2021/01/18 00:13:10;;;;;;;46.25;21.35;;;;;;;-4.52;92.06;101387.19;4985155;28;20046;-59
2021/01/18 00:15:36;;;;;;;43.63;21.83;;;;;;;-4.33;90.05;101392.34;4986049;28;20543;-56
2021/01/18 00:18:03;;;;;;;42.10;20.23;;;;;;;-4.37;89.22;101397.03;4986094;28;20077;-60
2021/01/18 00:20:30;;;;;;;45.17;20.80;;;;;;;-4.33;89.54;101390.72;4985779;28;20061;-58
2021/01/18 00:22:56;;;;;;;41.75;20.55;;;;;;;-4.62;90.91;101388.81;4984807;28;20792;-58
2021/01/18 00:25:24;;;;;;;43.72;20.40;;;;;;;-4.44;91.01;101389.66;4985928;28;20046;-57
2021/01/18 00:27:51;;;;;;;41.45;20.33;;;;;;;-4.42;90.81;101378.22;4985213;28;20054;-57
2021/01/18 00:30:23;;;;;;;40.58;20.27;;;;;;;-4.49;90.23;101370.84;4985431;28;20104;-58
2021/01/18 00:32:51;;;;;;;47.50;20.92;;;;;;;-5.00;92.34;101376.66;4985033;28;20046;-57
2021/01/18 00:35:20;;;;;;;43.80;20.52;;;;;;;-4.98;92.05;101371.13;4985533;28;20050;-59
2021/01/18 00:37:47;;;;;;;49.38;21.73;;;;;;;-5.28;93.17;101378.06;4985825;28;20058;-57
2021/01/18 00:40:15;;;;;;;44.95;21.30;;;;;;;-5.19;93.06;101377.34;4986117;28;20046;-56
2021/01/18 00:42:43;;;;;;;46.70;21.88;;;;;;;-5.06;92.55;101371.09;4985595;28;20050;-58
2021/01/18 00:45:12;;;;;;;44.05;22.80;;;;;;;-5.19;93.43;101367.38;4985709;28;20112;-58
2021/01/18 00:47:40;;;;;;;46.55;22.83;;;;;;;-5.27;94.55;101364.84;4984788;28;20834;-59
2021/01/18 00:50:07;;;;;;;53.95;23.48;;;;;;;-5.15;93.42;101366.06;4978620;28;20046;-61
2021/01/18 00:52:34;;;;;;;41.45;20.55;;;;;;;-5.34;93.49;101365.88;4985068;28;20050;-59
2021/01/18 00:55:01;;;;;;;46.30;23.13;;;;;;;-5.33;93.92;101367.63;4985346;28;20149;-59
2021/01/18 00:57:32;;;;;;;50.85;22.48;;;;;;;-5.36;93.95;101357.38;4985142;28;20046;-56
2021/01/18 00:59:58;;;;;;;47.55;21.77;;;;;;;-4.99;93.70;101358.47;4978421;28;20046;-56
2021/01/18 01:02:25;;;;;;;46.15;22.15;;;;;;;-5.26;93.45;101357.53;4985301;28;20054;-58
2021/01/18 01:04:51;;;;;;;43.85;21.67;;;;;;;-5.56;94.38;101345.38;4985219;28;20061;-58
2021/01/18 01:07:18;;;;;;;45.88;21.75;;;;;;;-5.09;94.04;101351.69;4984798;28;20198;-60
2021/01/18 01:09:44;;;;;;;45.38;21.92;;;;;;;-5.01;92.37;101355.81;4984971;28;20050;-59
2021/01/18 01:12:11;;;;;;;44.92;22.33;;;;;;;-5.22;92.98;101353.72;4985515;28;20049;-58
2021/01/18 01:14:38;;;;;;;45.67;21.05;;;;;;;-5.10;94.40;101359.91;4984938;28;20050;-56
2021/01/18 01:17:04;;;;;;;49.20;22.58;;;;;;;-5.27;93.69;101358.28;4984983;28;20055;-61
2021/01/18 01:19:31;;;;;;;48.58;23.52;;;;;;;-5.59;94.22;101355.06;4984837;28;20077;-58
2021/01/18 01:21:57;;;;;;;49.53;23.55;;;;;;;-5.80;95.43;101352.91;4984996;28;20046;-55
2021/01/18 01:24:24;;;;;;;51.17;25.23;;;;;;;-5.93;95.74;101343.31;4984438;28;20052;-55
2021/01/18 01:26:50;;;;;;;51.17;22.83;;;;;;;-5.75;96.60;101342.66;4984673;28;20614;-56
2021/01/18 01:29:17;;;;;;;49.58;23.30;;;;;;;-5.53;96.32;101349.81;4984421;28;20057;-60
2021/01/18 01:31:44;;;;;;;52.92;25.20;;;;;;;-5.80;96.01;101341.31;4984960;28;20050;-58
2021/01/18 01:34:11;;;;;;;50.33;24.73;;;;;;;-5.85;96.35;101341.59;4985264;28;20072;-60
2021/01/18 01:36:42;;;;;;;52.47;24.08;;;;;;;-5.92;96.34;101340.97;4984797;28;20554;-59
2021/01/18 01:39:09;;;;;;;52.15;23.17;;;;;;;-5.79;97.17;101343.06;4985313;28;20057;-60
2021/01/18 01:41:36;;;;;;;55.42;25.02;;;;;;;-5.86;96.43;101340.72;4984654;28;20054;-57
2021/01/18 01:44:02;;;;;;;50.58;24.55;;;;;;;-5.70;95.56;101341.50;4984723;28;20102;-61
2021/01/18 01:46:29;;;;;;;57.45;24.77;;;;;;;-6.01;95.67;101336.69;4984514;28;20054;-57
2021/01/18 01:48:56;;;;;;;52.67;24.88;;;;;;;-6.11;96.69;101334.88;4983104;28;20148;-61
2021/01/18 01:51:25;;;;;;;57.70;24.58;;;;;;;-5.95;97.65;101338.19;4984610;28;20138;-60
2021/01/18 01:53:51;;;;;;;56.92;25.70;;;;;;;-5.92;97.30;101340.97;4983772;28;20537;-60
2021/01/18 01:56:20;;;;;;;57.35;25.52;;;;;;;-5.97;96.90;101329.66;4984083;28;20073;-56
2021/01/18 01:58:46;;;;;;;56.90;26.27;;;;;;;-6.13;97.60;101330.47;4983989;28;20042;-59
2021/01/18 02:01:13;;;;;;;59.10;24.83;;;;;;;-6.25;97.79;101330.09;4985041;28;20046;-60
2021/01/18 02:03:46;;;;;;;57.08;25.42;;;;;;;-6.29;97.89;101333.00;4984496;28;20057;-56
2021/01/18 02:06:13;;;;;;;59.15;25.33;;;;;;;-6.31;98.38;101327.84;4984338;28;20042;-55
2021/01/18 02:08:40;;;;;;;56.03;26.15;;;;;;;-6.29;98.78;101333.00;4984193;28;20042;-53
2021/01/18 02:11:06;;;;;;;56.75;25.30;;;;;;;-6.26;98.65;101328.31;4978487;28;20141;-56
2021/01/18 02:14:00;;;;;;;64.10;26.60;;;;;;;-6.19;98.22;101326.63;4984118;28;20050;-55
2021/01/18 02:16:46;;;;;;;53.42;25.15;;;;;;;-6.14;97.61;101327.09;4981900;28;20042;-59
2021/01/18 02:19:40;;;;;;;58.58;26.13;;;;;;;-6.34;98.54;101330.03;4984464;28;20511;-56
2021/01/18 02:22:31;;;;;;;61.00;25.85;;;;;;;-6.36;98.44;101324.00;4979352;28;20053;-58
2021/01/18 02:25:14;;;;;;;55.28;26.50;;;;;;;-6.37;98.77;101331.34;4983047;28;20042;-57
2021/01/18 02:28:03;;;;;;;61.63;27.38;;;;;;;-6.51;99.16;101325.81;4983593;28;20050;-60
2021/01/18 02:30:42;;;;;;;57.55;24.92;;;;;;;-6.27;99.41;101322.47;4985109;28;20046;-58
2021/01/18 02:33:43;;;;;;;58.75;26.02;;;;;;;-6.28;98.35;101314.84;4963225;28;20510;-57
2021/01/18 02:36:28;;;;;;;63.78;26.40;;;;;;;-6.39;99.39;101322.81;4970394;28;20057;-55
2021/01/18 02:39:18;;;;;;;60.50;27.15;;;;;;;-6.47;99.10;101312.97;4983739;28;20062;-55
2021/01/18 02:41:58;;;;;;;63.67;25.83;;;;;;;-6.38;99.49;101310.50;4964589;28;20134;-55
2021/01/18 02:44:27;;;;;;;57.50;25.80;;;;;;;-6.32;99.31;101317.75;4964809;28;20053;-58
2021/01/18 02:46:54;;;;;;;58.83;25.35;;;;;;;-6.28;99.15;101315.72;4964676;28;20043;-61
2021/01/18 02:49:22;;;;;;;59.90;27.73;;;;;;;-6.20;99.09;101309.88;4964989;28;20046;-59
2021/01/18 02:52:14;;;;;;;69.13;26.90;;;;;;;-6.42;98.67;101306.84;4964824;28;20676;-57
2021/01/18 02:54:41;;;;;;;65.88;28.90;;;;;;;-6.19;99.75;101309.19;4964909;28;20491;-61
2021/01/18 02:57:14;;;;;;;62.88;27.30;;;;;;;-6.08;98.67;101305.28;4964547;28;20551;-55
2021/01/18 02:59:43;;;;;;;64.20;26.05;;;;;;;-6.31;98.75;101304.56;4963802;28;20136;-57
2021/01/18 03:02:44;;;;;;;64.25;26.38;;;;;;;-6.35;99.22;101299.97;4964771;28;20046;-61
2021/01/18 03:05:18;;;;;;;61.55;24.70;;;;;;;-5.67;98.66;101303.53;4960420;28;20134;-57
2021/01/18 03:08:09;;;;;;;63.05;26.42;;;;;;;-6.22;97.35;101308.84;4963050;28;20256;-59
2021/01/18 03:10:42;;;;;;;60.78;27.70;;;;;;;-6.32;97.88;101300.31;4964270;28;20039;-60
2021/01/18 03:13:38;;;;;;;63.97;28.08;;;;;;;-6.30;98.55;101299.72;4960071;28;20469;-55
2021/01/18 03:16:12;;;;;;;60.42;25.77;;;;;;;-6.27;99.24;101297.53;4946866;28;20058;-57
2021/01/18 03:18:42;;;;;;;66.82;28.67;;;;;;;-6.19;98.89;101305.81;4964494;28;20101;-59
2021/01/18 03:21:10;;;;;;;69.93;29.48;;;;;;;-6.30;98.76;101303.81;4960302;28;20078;-58
2021/01/18 03:23:41;;;;;;;65.22;28.98;;;;;;;-6.25;99.16;101290.22;4964152;28;20043;-59
2021/01/18 03:26:08;;;;;;;61.40;27.75;;;;;;;-6.26;99.21;101294.31;4959779;28;20046;-61
2021/01/18 03:28:35;;;;;;;64.93;29.23;;;;;;;-6.06;98.87;101303.81;4964049;28;20767;-57
2021/01/18 03:31:02;;;;;;;60.30;27.15;;;;;;;-6.15;98.32;101300.38;4964478;28;20038;-60
2021/01/18 03:33:29;;;;;;;66.72;28.55;;;;;;;-5.89;98.94;101303.00;4964322;28;20116;-58
2021/01/18 03:35:56;;;;;;;57.50;28.27;;;;;;;-5.97;98.46;101296.38;4963101;28;20069;-57
2021/01/18 03:38:24;;;;;;;60.88;27.05;;;;;;;-5.64;98.31;101297.25;4964312;28;20051;-55
2021/01/18 03:40:52;;;;;;;61.70;26.13;;;;;;;-5.44;97.17;101296.69;4963723;28;20066;-58
2021/01/18 03:43:20;;;;;;;55.20;26.55;;;;;;;-5.27;96.70;101293.38;4964490;28;20077;-59
2021/01/18 03:45:47;;;;;;;54.38;25.90;;;;;;;-5.25;95.21;101311.00;4964299;28;20050;-59
2021/01/18 03:48:14;;;;;;;54.38;23.65;;;;;;;-5.06;93.82;101302.06;4968159;28;20054;-57
2021/01/18 03:50:42;;;;;;;58.45;25.92;;;;;;;-5.07;93.79;101300.31;4966566;28;20578;-60
2021/01/18 03:53:09;;;;;;;56.95;25.60;;;;;;;-5.47;94.67;101296.38;4967964;28;20043;-60
2021/01/18 03:55:37;;;;;;;51.80;24.38;;;;;;;-5.45;96.04;101294.06;4967065;28;20046;-60
2021/01/18 03:58:04;;;;;;;54.42;24.95;;;;;;;-5.00;94.85;101289.28;4967147;28;20051;-59
2021/01/18 04:00:33;;;;;;;54.88;24.08;;;;;;;-4.87;93.72;101285.63;4967545;28;20782;-61
2021/01/18 04:03:00;;;;;;;51.83;23.95;;;;;;;-4.54;92.62;101293.69;4967259;28;20053;-59
2021/01/18 04:05:27;;;;;;;54.88;25.27;;;;;;;-5.25;93.69;101286.91;4967207;28;20058;-59
2021/01/18 04:07:56;;;;;;;51.20;24.17;;;;;;;-4.95;93.35;101288.09;4967404;28;20054;-58
2021/01/18 04:10:25;;;;;;;54.30;25.98;;;;;;;-5.02;93.68;101275.78;4967318;28;20047;-59
2021/01/18 04:12:53;;;;;;;50.80;24.17;;;;;;;-4.90;94.54;101272.84;4967031;28;20043;-58
2021/01/18 04:15:22;;;;;;;53.05;24.13;;;;;;;-4.66;93.37;101275.94;4967581;28;20423;-58
2021/01/18 04:17:54;;;;;;;48.03;23.30;;;;;;;-5.15;93.66;101272.09;4966979;28;20050;-54
2021/01/18 04:20:21;;;;;;;52.63;24.60;;;;;;;-5.18;94.45;101268.41;4967413;28;20065;-55
2021/01/18 04:22:53;;;;;;;52.50;24.10;;;;;;;-5.12;93.64;101276.50;4965760;28;20522;-56
2021/01/18 04:25:22;;;;;;;55.88;24.50;;;;;;;-4.75;92.91;101275.94;4967195;28;20056;-59
2021/01/18 04:27:51;;;;;;;52.65;22.70;;;;;;;-4.72;92.89;101277.81;4966869;28;20146;-59
2021/01/18 04:30:19;;;;;;;49.58;24.40;;;;;;;-4.62;92.42;101273.88;4983050;28;20061;-60
2021/01/18 04:33:05;;;;;;;50.35;23.55;;;;;;;-4.62;91.90;101276.38;4986748;28;20046;-58
2021/01/18 04:35:35;;;;;;;51.53;23.77;;;;;;;-4.71;91.49;101275.50;4967025;28;20126;-60
2021/01/18 04:38:03;;;;;;;52.10;24.80;;;;;;;-4.99;92.63;101276.97;4967048;28;20050;-60
2021/01/18 04:40:32;;;;;;;51.13;24.92;;;;;;;-4.74;92.46;101274.31;4967480;28;20061;-58
2021/01/18 04:42:59;;;;;;;58.83;24.65;;;;;;;-4.74;92.02;101271.81;4966307;28;20974;-60
2021/01/18 04:45:28;;;;;;;47.35;22.80;;;;;;;-4.63;91.54;101267.09;4967366;28;20050;-60
2021/01/18 04:47:57;;;;;;;50.08;23.30;;;;;;;-4.96;93.73;101268.88;4965534;28;20859;-55
2021/01/18 04:50:26;;;;;;;50.17;23.88;;;;;;;-5.11;93.52;101265.78;4967112;28;20055;-56
2021/01/18 04:52:54;;;;;;;52.17;24.52;;;;;;;-4.93;94.59;101265.06;4966449;28;20043;-57
2021/01/18 04:55:42;;;;;;;54.38;24.92;;;;;;;-5.08;94.09;101270.16;4966962;28;20054;-58
2021/01/18 04:58:18;;;;;;;49.30;23.70;;;;;;;-4.70;93.04;101268.88;4952851;28;20055;-52
2021/01/18 05:01:04;;;;;;;50.30;23.30;;;;;;;-4.58;92.58;101272.53;4962688;28;20097;-55
2021/01/18 05:03:39;;;;;;;52.58;22.50;;;;;;;-4.67;92.39;101270.06;4985604;28;20052;-55
2021/01/18 05:06:12;;;;;;;53.42;23.92;;;;;;;-5.18;93.20;101258.41;4985858;28;20072;-56
2021/01/18 05:09:04;;;;;;;53.80;24.30;;;;;;;-4.82;91.42;101262.69;4985985;28;20050;-56
2021/01/18 05:11:33;;;;;;;46.28;21.35;;;;;;;-4.59;91.46;101260.75;4987314;28;20050;-54
2021/01/18 05:14:03;;;;;;;51.88;22.42;;;;;;;-4.87;91.02;101262.25;4989236;28;20053;-55
2021/01/18 05:16:34;;;;;;;44.67;21.73;;;;;;;-4.65;91.41;101263.56;4988647;28;20078;-54
2021/01/18 05:19:12;;;;;;;51.63;22.63;;;;;;;-4.48;91.52;101269.31;4988187;28;20050;-55
2021/01/18 05:21:45;;;;;;;38.97;20.98;;;;;;;-4.12;88.40;101271.84;4989824;28;20050;-55
2021/01/18 05:24:12;;;;;;;47.40;22.13;;;;;;;-4.22;89.32;101275.09;4984841;28;20049;-54
2021/01/18 05:27:00;;;;;;;47.70;21.45;;;;;;;-4.35;88.70;101277.19;4989117;28;20053;-55
2021/01/18 05:29:36;;;;;;;41.80;21.40;;;;;;;-4.16;88.33;101260.69;4984826;28;20042;-54
2021/01/18 05:32:21;;;;;;;48.10;21.67;;;;;;;-4.26;88.13;101264.66;4984909;28;20058;-55
2021/01/18 05:34:52;;;;;;;40.72;21.05;;;;;;;-4.61;89.11;101258.13;4984447;28;20046;-54
2021/01/18 05:37:19;;;;;;;43.50;21.13;;;;;;;-4.06;87.92;101259.94;4985304;28;20136;-56
2021/01/18 05:39:46;;;;;;;46.88;22.52;;;;;;;-4.74;89.31;101250.22;4990851;28;20046;-54
2021/01/18 05:42:20;;;;;;;48.13;22.88;;;;;;;-4.29;88.58;101252.78;4986972;28;20050;-57
2021/01/18 05:44:47;;;;;;;49.55;22.92;;;;;;;-4.89;89.78;101256.25;4987085;28;20052;-53
2021/01/18 05:47:15;;;;;;;54.60;23.38;;;;;;;-4.94;92.58;101257.44;4985090;28;20046;-55
2021/01/18 05:49:49;;;;;;;50.38;23.08;;;;;;;-5.23;92.13;101257.97;4984066;28;20565;-53
2021/01/18 05:52:27;;;;;;;54.42;23.60;;;;;;;-4.66;90.53;101261.81;4985123;28;20066;-56
2021/01/18 05:55:33;;;;;;;47.13;23.45;;;;;;;-4.61;89.68;101262.25;4984942;28;20117;-58
2021/01/18 05:58:03;;;;;;;49.58;22.65;;;;;;;-4.68;90.25;101264.88;4982417;28;20055;-56
2021/01/18 06:00:44;;;;;;;45.45;22.48;;;;;;;-4.87;90.44;101258.13;4984354;28;20125;-55
2021/01/18 06:03:12;;;;;;;45.75;22.70;;;;;;;-4.51;90.54;101262.38;4982247;28;20073;-52
2021/01/18 06:05:40;;;;;;;45.25;22.45;;;;;;;-4.30;88.00;101257.63;4984748;28;20060;-55
2021/01/18 06:08:12;;;;;;;54.33;24.10;;;;;;;-4.70;89.83;101253.88;4981870;28;20112;-56
2021/01/18 06:10:40;;;;;;;47.15;22.50;;;;;;;-4.40;88.12;101254.25;4984597;28;20521;-52
2021/01/18 06:13:18;;;;;;;45.00;22.08;;;;;;;-4.28;87.88;101258.66;4979930;28;20859;-55
2021/01/18 06:15:46;;;;;;;49.55;24.25;;;;;;;-4.56;88.73;101263.56;4983923;28;20487;-57
2021/01/18 06:18:15;;;;;;;49.55;23.67;;;;;;;-4.65;90.46;101262.69;4983835;28;20499;-59
2021/01/18 06:20:43;;;;;;;51.22;24.30;;;;;;;-3.80;87.75;101257.31;4983491;28;20042;-57
2021/01/18 06:23:10;;;;;;;49.10;23.88;;;;;;;-4.37;88.72;101262.06;4984290;28;20050;-58
2021/01/18 06:25:39;;;;;;;46.28;24.05;;;;;;;-4.22;90.04;101261.72;4983979;28;20617;-57
2021/01/18 06:28:36;;;;;;;45.97;21.38;;;;;;;-3.77;86.81;101259.22;4979984;28;20454;-60
2021/01/18 06:31:04;;;;;;;42.28;21.60;;;;;;;-4.00;87.90;101252.97;4983355;28;20154;-57
2021/01/18 06:33:37;;;;;;;48.97;24.02;;;;;;;-4.29;89.43;101260.28;4984205;28;20475;-59
2021/01/18 06:36:25;;;;;;;45.10;21.25;;;;;;;-4.01;87.39;101265.34;4983899;28;20092;-59
2021/01/18 06:38:58;;;;;;;50.47;24.73;;;;;;;-4.56;90.46;101262.69;4983355;28;20038;-60
2021/01/18 06:41:29;;;;;;;53.73;24.07;;;;;;;-3.97;88.57;101263.28;4984303;28;20081;-57
2021/01/18 06:43:56;;;;;;;44.45;22.48;;;;;;;-4.57;89.95;101273.44;4982532;28;20287;-55
2021/01/18 06:46:26;;;;;;;46.40;24.17;;;;;;;-4.59;89.96;101265.75;4987659;28;20153;-55
2021/01/18 06:48:53;;;;;;;48.50;22.35;;;;;;;-4.47;89.79;101273.56;4983053;28;20257;-58
2021/01/18 06:51:25;;;;;;;47.13;22.70;;;;;;;-4.43;88.95;101281.50;4989335;28;20137;-58
2021/01/18 06:53:54;;;;;;;43.45;22.40;;;;;;;-3.91;87.06;101282.97;4982827;28;20046;-60
2021/01/18 06:56:25;;;;;;;48.55;23.58;;;;;;;-4.10;88.42;101293.75;4992845;28;20069;-58
2021/01/18 06:58:57;;;;;;;49.58;24.83;;;;;;;-3.89;87.16;101287.34;4988891;28;20050;-60
2021/01/18 07:01:29;;;;;;;48.40;23.15;;;;;;;-3.63;86.88;101289.75;4988771;28;20049;-60
2021/01/18 07:04:11;;;;;;;46.78;23.10;;;;;;;-3.51;85.60;101290.00;4984883;28;20058;-58
2021/01/18 07:06:42;;;;;;;49.08;23.40;;;;;;;-4.40;88.83;101298.38;4988438;28;20054;-60
2021/01/18 07:09:21;;;;;;;45.53;21.85;;;;;;;-3.89;88.74;101279.84;4989322;28;20068;-57
2021/01/18 07:12:05;;;;;;;50.22;24.25;;;;;;;-4.31;89.85;101294.25;4988044;28;20050;-55
2021/01/18 07:14:34;;;;;;;46.03;23.45;;;;;;;-4.01;88.05;101297.88;4988041;28;20057;-60
2021/01/18 07:17:07;;;;;;;51.50;24.67;;;;;;;-4.23;89.16;101295.84;4988273;28;20101;-58
2021/01/18 07:19:38;;;;;;;49.85;24.17;;;;;;;-4.21;89.73;101293.47;4986537;28;20054;-55
2021/01/18 07:23:03;;;;;;;49.65;23.88;;;;;;;-4.22;88.71;101299.22;4983621;28;20061;-56
2021/01/18 07:25:39;;;;;;;49.28;24.98;;;;;;;-4.31;90.27;101298.38;4910477;29;20105;-57
2021/01/18 07:28:08;;;;;;;57.22;25.95;;;;;;;-4.16;90.39;101290.69;4979747;28;20081;-59
2021/01/18 07:30:37;;;;;;;49.95;24.02;;;;;;;-4.38;91.28;101294.41;4979587;28;20447;-52
2021/01/18 07:33:14;;;;;;;50.35;23.70;;;;;;;-4.23;90.07;101295.84;4993010;28;20050;-56
2021/01/18 07:35:44;;;;;;;48.22;23.40;;;;;;;-3.59;87.78;101285.91;4993300;28;20060;-57
2021/01/18 07:38:20;;;;;;;47.70;23.83;;;;;;;-4.06;89.15;101302.44;4993843;28;20098;-59
2021/01/18 07:41:06;;;;;;;48.55;24.73;;;;;;;-4.13;89.68;101295.97;4992945;28;20050;-55
2021/01/18 07:43:35;;;;;;;38.85;18.17;;;;;;;-4.01;90.70;101297.88;4992133;28;20050;-60
2021/01/18 07:46:26;;;;;;;48.40;24.17;;;;;;;-3.88;88.25;101288.25;4993399;28;20042;-59
2021/01/18 07:48:58;;;;;;;47.97;24.02;;;;;;;-3.75;88.32;101290.25;4991947;28;20042;-59
2021/01/18 07:51:29;;;;;;;50.25;25.65;;;;;;;-3.94;90.34;101287.66;4992244;28;20107;-57
2021/01/18 07:53:56;;;;;;;49.17;24.33;;;;;;;-3.39;89.04;101285.22;4991398;28;20043;-58
2021/01/18 07:56:27;;;;;;;49.13;23.63;;;;;;;-3.65;89.25;101277.81;4994749;28;20050;-59
2021/01/18 07:58:57;;;;;;;50.97;25.83;;;;;;;-3.45;88.68;101289.69;4991830;28;20467;-61
2021/01/18 08:01:42;;;;;;;53.20;25.52;;;;;;;-3.90;89.81;101279.72;4994948;28;20050;-57
2021/01/18 08:04:28;;;;;;;49.45;24.45;;;;;;;-3.94;90.30;101286.03;4991124;28;20054;-59
2021/01/18 08:07:06;;;;;;;56.08;26.00;;;;;;;-3.71;89.42;101277.28;4991441;28;20050;-60
2021/01/18 08:09:36;;;;;;;49.08;23.48;;;;;;;-3.20;89.24;101276.09;4976775;28;20148;-58
2021/01/18 08:12:38;;;;;;;46.78;24.10;;;;;;;-3.19;88.40;101280.41;4992371;28;20069;-55
2021/01/18 08:15:11;;;;;;;48.90;24.00;;;;;;;-3.73;89.66;101274.66;4889895;29;20048;-57
2021/01/18 08:17:39;;;;;;;60.83;27.38;;;;;;;-3.76;90.22;101269.34;4977158;28;20055;-54
2021/01/18 08:20:10;;;;;;;54.30;25.98;;;;;;;-3.46;90.82;101263.75;4988250;28;20058;-56
2021/01/18 08:22:38;;;;;;;55.28;26.92;;;;;;;-3.43;89.80;101263.16;4993064;28;20059;-54
2021/01/18 08:25:06;;;;;;;51.03;26.60;;;;;;;-3.12;88.59;101261.78;4992181;28;20129;-56
2021/01/18 08:27:46;;;;;;;53.78;26.00;;;;;;;-3.03;87.79;101271.72;4993211;28;20467;-58
2021/01/18 08:30:39;;;;;;;43.60;22.90;;;;;;;-3.04;87.63;101273.34;4991956;28;20077;-59
2021/01/18 08:33:08;;;;;;;48.25;24.30;;;;;;;-3.35;89.26;101263.09;4990682;28;20085;-60
2021/01/18 08:35:54;;;;;;;53.58;25.85;;;;;;;-3.83;90.57;101257.03;4993210;28;20064;-59
2021/01/18 08:38:30;;;;;;;51.35;25.75;;;;;;;-3.62;90.63;101253.09;4993051;28;20042;-58
2021/01/18 08:41:10;;;;;;;51.88;24.48;;;;;;;-3.48;90.98;101247.72;4985099;28;20043;-56
2021/01/18 08:43:49;;;;;;;51.80;25.42;;;;;;;-3.41;89.79;101247.53;4985681;28;20155;-56
2021/01/18 08:46:42;;;;;;;53.03;26.27;;;;;;;-2.96;86.94;101248.97;4984416;28;20050;-57
2021/01/18 08:49:32;;;;;;;46.05;24.08;;;;;;;-2.91;88.23;101251.16;4981073;28;20066;-58
2021/01/18 08:52:02;;;;;;;48.70;23.77;;;;;;;-3.20;89.08;101255.19;4985783;28;20129;-59
2021/01/18 08:54:29;;;;;;;49.50;25.48;;;;;;;-3.01;88.74;101250.19;4983936;28;20054;-57
2021/01/18 08:57:24;;;;;;;47.78;25.73;;;;;;;-3.25;89.70;101263.91;4984577;28;20054;-60
2021/01/18 09:00:20;;;;;;;49.72;26.50;;;;;;;-3.63;91.86;101257.22;4984889;28;20101;-57
2021/01/18 09:02:50;;;;;;;52.55;27.08;;;;;;;-3.07;89.96;101261.44;4967029;28;20054;-58
2021/01/18 09:05:21;;;;;;;49.10;25.30;;;;;;;-2.68;87.24;101262.28;4985531;28;20080;-56
2021/01/18 09:07:50;;;;;;;53.50;26.85;;;;;;;-3.06;89.51;101264.81;4984923;28;20074;-57
2021/01/18 09:10:21;;;;;;;49.40;26.38;;;;;;;-2.87;87.63;101267.31;4985812;28;20046;-59
2021/01/18 09:12:49;;;;;;;59.42;26.45;;;;;;;-3.21;90.46;101273.47;4985161;28;20454;-55
2021/01/18 09:15:19;;;;;;;52.00;26.00;;;;;;;-2.88;89.75;101273.97;4985842;28;20100;-59
2021/01/18 09:17:54;;;;;;;49.70;24.85;;;;;;;-2.44;87.66;101279.47;4984488;28;20050;-57
2021/01/18 09:20:21;;;;;;;50.67;25.52;;;;;;;-2.59;88.61;101281.53;4985118;28;20054;-61
2021/01/18 09:22:48;;;;;;;52.00;26.30;;;;;;;-2.83;89.17;101280.25;4985688;28;20054;-57
2021/01/18 09:25:17;;;;;;;51.55;26.70;;;;;;;-2.41;88.60;101278.84;4985207;28;20046;-57
2021/01/18 09:27:44;;;;;;;57.40;28.08;;;;;;;-2.84;88.82;101270.97;4984125;28;20054;-60
2021/01/18 09:30:16;;;;;;;51.88;28.45;;;;;;;-2.57;89.15;101270.00;4984799;28;20129;-56
2021/01/18 09:33:05;;;;;;;51.75;27.50;;;;;;;-2.90;89.16;101269.56;4984272;28;20049;-61
2021/01/18 09:35:42;;;;;;;55.20;29.13;;;;;;;-2.36;88.89;101271.00;4984488;28;20050;-61
2021/01/18 09:38:10;;;;;;;54.83;27.02;;;;;;;-2.67;89.63;101269.97;4980260;28;20077;-60
2021/01/18 09:40:40;;;;;;;51.67;26.67;;;;;;;-2.30;86.61;101273.16;4984573;28;20066;-59
2021/01/18 09:43:11;;;;;;;52.20;27.70;;;;;;;-2.27;88.55;101262.47;4979684;28;20086;-58
2021/01/18 09:45:38;;;;;;;50.35;27.48;;;;;;;-1.89;87.04;101265.75;4983413;28;20050;-59
2021/01/18 09:48:11;;;;;;;52.97;27.33;;;;;;;-2.23;86.12;101262.00;4979877;28;20486;-57
2021/01/18 09:50:38;;;;;;;53.03;26.50;;;;;;;-1.98;85.70;101254.94;4984063;28;20526;-59
2021/01/18 09:53:08;;;;;;;46.67;25.38;;;;;;;-1.64;84.76;101244.47;4985214;28;20499;-57
2021/01/18 09:55:45;;;;;;;53.47;26.98;;;;;;;-2.11;86.24;101255.53;4985001;28;20868;-56
2021/01/18 09:58:23;;;;;;;51.72;27.52;;;;;;;-1.72;85.68;101252.97;4980633;28;20050;-56
2021/01/18 10:00:50;;;;;;;52.00;25.95;;;;;;;-1.10;83.27;101247.22;4983983;28;20499;-56
2021/01/18 10:03:28;;;;;;;47.28;25.52;;;;;;;-1.32;83.83;101237.06;4984790;28;20054;-57
2021/01/18 10:06:10;;;;;;;48.83;25.58;;;;;;;-1.75;83.75;101231.78;4983888;28;20050;-57
2021/01/18 10:08:39;;;;;;;50.75;24.95;;;;;;;-1.12;83.77;101233.63;4984017;28;20070;-55
2021/01/18 10:11:43;;;;;;;46.10;25.27;;;;;;;-1.13;82.35;101239.44;4978560;28;20097;-58
2021/01/18 10:14:24;;;;;;;49.90;25.30;;;;;;;-1.03;82.39;101236.91;4980722;28;20054;-58
2021/01/18 10:16:57;;;;;;;53.17;27.35;;;;;;;-1.69;85.72;101238.19;4983382;28;20752;-57
2021/01/18 10:19:24;;;;;;;51.88;26.45;;;;;;;-1.43;85.10;101227.78;4984264;28;20169;-58
2021/01/18 10:21:53;;;;;;;53.47;27.13;;;;;;;-1.59;86.39;101232.28;4983647;28;20078;-60
2021/01/18 10:24:30;;;;;;;52.60;25.25;;;;;;;-1.29;84.96;101243.97;4981474;28;20105;-58
2021/01/18 10:27:05;;;;;;;53.13;27.25;;;;;;;-1.62;85.57;101232.00;4982020;28;20050;-58
2021/01/18 10:29:33;;;;;;;55.08;27.95;;;;;;;-1.89;87.99;101236.53;4983765;28;20046;-59
2021/01/18 10:32:00;;;;;;;51.92;28.35;;;;;;;-2.10;88.98;101224.66;4983628;28;20050;-60
2021/01/18 10:34:34;;;;;;;55.15;28.80;;;;;;;-1.78;87.89;101226.50;4983806;28;20446;-56
2021/01/18 10:37:19;;;;;;;51.60;26.35;;;;;;;-1.52;87.00;101226.16;4980644;28;20045;-56
2021/01/18 10:39:46;;;;;;;51.88;27.17;;;;;;;-1.62;88.02;101224.47;4983520;28;20530;-60
2021/01/18 10:42:18;;;;;;;51.95;26.70;;;;;;;-1.94;87.86;101227.72;4983177;28;20046;-56
2021/01/18 10:44:55;;;;;;;54.55;27.73;;;;;;;-1.54;88.11;101218.47;4983500;28;20042;-56
2021/01/18 10:47:28;;;;;;;57.58;28.50;;;;;;;-1.86;88.43;101231.75;4983993;28;20049;-59
2021/01/18 10:50:00;;;;;;;52.40;27.23;;;;;;;-2.11;89.57;101232.94;4983782;28;20060;-57
2021/01/18 10:52:34;;;;;;;53.95;27.48;;;;;;;-1.18;86.37;101224.75;4983541;28;20050;-59
2021/01/18 10:55:04;;;;;;;55.58;28.45;;;;;;;-1.84;88.21;101234.41;4979894;28;20130;-58
2021/01/18 10:57:47;;;;;;;51.47;27.70;;;;;;;-1.50;88.56;101224.63;4977246;28;20050;-55
2021/01/18 11:00:15;;;;;;;55.97;28.40;;;;;;;-1.22;86.38;101218.59;4981806;28;20129;-58
2021/01/18 11:02:51;;;;;;;53.42;28.25;;;;;;;-1.51;88.58;101220.38;4982680;28;20050;-59
2021/01/18 11:05:19;;;;;;;51.00;27.58;;;;;;;-1.25;87.24;101213.28;4980843;28;20137;-57
2021/01/18 11:07:47;;;;;;;56.20;29.38;;;;;;;-1.17;87.05;101207.25;4981929;28;20042;-58
2021/01/18 11:10:22;;;;;;;55.25;29.00;;;;;;;-0.72;85.53;101218.38;4983193;28;20090;-57
2021/01/18 11:13:12;;;;;;;55.42;29.38;;;;;;;-1.42;87.14;101203.53;4981682;28;20073;-58
2021/01/18 11:15:41;;;;;;;52.53;26.63;;;;;;;-0.52;83.92;101208.22;4980391;28;20499;-61
2021/01/18 11:18:10;;;;;;;55.17;28.13;;;;;;;-0.58;83.71;101205.22;4976156;28;20046;-60
2021/01/18 11:20:40;;;;;;;57.35;28.10;;;;;;;-0.36;83.99;101205.28;4980820;28;20049;-54
2021/01/18 11:23:09;;;;;;;55.60;30.38;;;;;;;-0.16;82.69;101207.66;4978712;28;20475;-54
2021/01/18 11:25:37;;;;;;;55.67;28.20;;;;;;;-0.54;84.81;101207.22;4983409;28;20046;-53
2021/01/18 11:28:08;;;;;;;53.03;28.15;;;;;;;-0.27;83.66;101209.38;4982913;28;20113;-59
2021/01/18 11:30:36;;;;;;;53.63;27.73;;;;;;;-0.44;83.89;101211.34;4983188;28;20042;-56
2021/01/18 11:33:05;;;;;;;53.38;28.50;;;;;;;-1.26;86.61;101213.19;4983331;28;20050;-55
2021/01/18 11:35:32;;;;;;;53.88;29.08;;;;;;;-1.10;88.37;101203.63;4983398;28;20137;-55